createdAt,value
2023-03-02T00:01:54.789Z,14.40
2023-03-02T00:04:37.506Z,13.30
2023-03-02T00:07:13.192Z,15.82
2023-03-02T00:09:46.887Z,14.38
2023-03-02T00:12:21.548Z,15.00
2023-03-02T00:14:56.234Z,16.13
2023-03-02T00:17:32.909Z,15.05
2023-03-02T00:20:16.634Z,15.30
2023-03-02T00:22:50.318Z,15.88
2023-03-02T00:25:25.005Z,16.95
2023-03-02T00:27:59.705Z,17.65
2023-03-02T00:30:34.378Z,16.02
2023-03-02T00:33:08.061Z,17.45
2023-03-02T00:35:45.823Z,18.02
2023-03-02T00:38:19.396Z,19.67
2023-03-02T00:40:57.083Z,18.25
2023-03-02T00:43:31.757Z,18.45
2023-03-02T00:46:06.596Z,18.38
2023-03-02T00:48:40.117Z,17.77
2023-03-02T00:51:14.791Z,18.80
2023-03-02T00:53:48.478Z,19.38
2023-03-02T00:56:23.151Z,19.08
2023-03-02T00:58:57.869Z,19.35
2023-03-02T01:01:31.537Z,19.10
2023-03-02T01:04:06.212Z,19.33
2023-03-02T01:06:39.904Z,19.52
2023-03-02T01:09:13.567Z,20.40
2023-03-02T01:11:47.259Z,18.80
2023-03-02T01:14:24.968Z,20.77
2023-03-02T01:16:58.628Z,20.17
2023-03-02T01:19:33.307Z,19.77
2023-03-02T01:22:05.974Z,19.88
2023-03-02T01:24:39.637Z,20.20
2023-03-02T01:27:13.310Z,19.58
2023-03-02T01:29:48.026Z,21.45
2023-03-02T01:32:21.721Z,19.63
2023-03-02T01:34:56.370Z,19.73
2023-03-02T01:37:31.073Z,20.85
2023-03-02T01:40:07.766Z,21.23
2023-03-02T01:42:44.466Z,20.42
2023-03-02T01:45:35.308Z,19.77
2023-03-02T01:48:08.897Z,20.25
2023-03-02T01:50:43.587Z,21.40
2023-03-02T01:53:17.258Z,19.75
2023-03-02T01:55:51.950Z,19.13
2023-03-02T01:58:26.633Z,20.88
2023-03-02T02:01:00.382Z,19.80
2023-03-02T02:03:37.038Z,21.75
2023-03-02T02:06:21.778Z,20.55
2023-03-02T02:08:59.451Z,20.70
2023-03-02T02:11:33.117Z,21.70
2023-03-02T02:14:07.799Z,20.65
2023-03-02T02:16:42.531Z,20.65
2023-03-02T02:19:29.224Z,20.73
2023-03-02T02:22:03.551Z,18.95
2023-03-02T02:24:42.626Z,20.15
2023-03-02T02:27:17.305Z,17.73
2023-03-02T02:29:57.013Z,20.80
2023-03-02T02:32:35.780Z,19.10
2023-03-02T02:35:09.427Z,19.90
2023-03-02T02:37:49.155Z,20.10
2023-03-02T02:40:44.905Z,20.58
2023-03-02T02:43:20.586Z,20.27
2023-03-02T02:45:55.363Z,20.25
2023-03-02T02:48:29.954Z,20.73
2023-03-02T02:51:05.655Z,21.83
2023-03-02T02:54:04.446Z,19.15
2023-03-02T02:56:40.132Z,18.52
2023-03-02T02:59:19.836Z,19.00
2023-03-02T03:01:54.506Z,19.95
2023-03-02T03:04:35.285Z,19.95
2023-03-02T03:07:08.876Z,20.30
2023-03-02T03:09:43.582Z,18.92
2023-03-02T03:12:25.280Z,19.73
2023-03-02T03:14:59.962Z,18.65
2023-03-02T03:17:34.635Z,17.65
2023-03-02T03:20:13.326Z,19.25
2023-03-02T03:22:51.025Z,18.95
2023-03-02T03:25:24.710Z,19.50
2023-03-02T03:27:59.372Z,20.02
2023-03-02T03:30:34.082Z,19.58
2023-03-02T03:33:07.747Z,19.30
2023-03-02T03:35:41.507Z,18.27
2023-03-02T03:38:16.121Z,17.83
2023-03-02T03:40:52.805Z,19.02
2023-03-02T03:43:27.522Z,18.05
2023-03-02T03:46:01.199Z,19.20
2023-03-02T03:48:35.898Z,17.58
2023-03-02T03:51:10.522Z,17.67
2023-03-02T03:53:43.193Z,19.10
2023-03-02T03:56:17.880Z,18.17
2023-03-02T03:58:51.604Z,19.15
2023-03-02T04:01:26.269Z,18.90
2023-03-02T04:03:59.954Z,17.60
2023-03-02T04:06:34.871Z,19.30
2023-03-02T04:09:09.296Z,17.83
2023-03-02T04:11:42.989Z,16.55
2023-03-02T04:14:17.681Z,16.73
2023-03-02T04:16:51.300Z,17.92
2023-03-02T04:19:25.998Z,17.13
2023-03-02T04:22:01.736Z,18.27
2023-03-02T04:24:36.395Z,18.25
2023-03-02T04:27:09.072Z,17.35
2023-03-02T04:29:42.759Z,17.55
2023-03-02T04:32:19.525Z,17.35
2023-03-02T04:34:52.468Z,16.23
2023-03-02T04:37:26.808Z,16.40
2023-03-02T04:40:00.489Z,15.50
2023-03-02T04:42:35.163Z,16.33
2023-03-02T04:45:07.864Z,17.17
2023-03-02T04:47:42.533Z,16.50
2023-03-02T04:50:17.227Z,16.23
2023-03-02T04:52:51.903Z,16.75
2023-03-02T04:55:31.607Z,15.80
2023-03-02T04:58:05.285Z,16.38
2023-03-02T05:00:39.944Z,17.15
2023-03-02T05:03:13.640Z,16.00
2023-03-02T05:05:48.319Z,17.50
2023-03-02T05:08:22.016Z,15.18
2023-03-02T05:10:56.670Z,16.63
2023-03-02T05:13:31.337Z,17.42
2023-03-02T05:16:06.050Z,14.05
2023-03-02T05:18:40.676Z,16.35
2023-03-02T05:21:17.382Z,16.17
2023-03-02T05:23:52.065Z,15.20
2023-03-02T05:26:25.738Z,15.77
2023-03-02T05:28:59.435Z,15.77
2023-03-02T05:31:39.186Z,15.90
2023-03-02T05:34:13.829Z,17.45
2023-03-02T05:36:47.504Z,16.48
2023-03-02T05:39:22.174Z,16.10
2023-03-02T05:41:55.905Z,16.45
2023-03-02T05:44:30.521Z,16.60
2023-03-02T05:47:03.626Z,17.00
2023-03-02T05:49:37.550Z,17.08
2023-03-02T05:52:11.555Z,16.80
2023-03-02T05:54:45.238Z,15.55
2023-03-02T05:57:19.927Z,16.38
2023-03-02T05:59:54.619Z,15.38
2023-03-02T06:02:25.916Z,16.13
2023-03-02T06:04:58.976Z,15.95
2023-03-02T06:07:34.666Z,15.77
2023-03-02T06:10:07.354Z,16.13
2023-03-02T06:12:41.016Z,17.30
2023-03-02T06:15:14.673Z,16.90
2023-03-02T06:17:49.345Z,16.17
2023-03-02T06:20:24.031Z,14.95
2023-03-02T06:22:58.714Z,15.70
2023-03-02T06:25:33.399Z,16.52
2023-03-02T06:28:07.074Z,16.08
2023-03-02T06:30:35.381Z,16.35
2023-03-02T06:33:10.428Z,15.77
2023-03-02T06:35:40.997Z,15.75
2023-03-02T06:38:13.773Z,16.23
2023-03-02T06:40:43.986Z,16.90
2023-03-02T06:43:14.084Z,17.00
2023-03-02T06:45:43.452Z,16.02
2023-03-02T06:48:12.802Z,17.55
2023-03-02T06:50:46.081Z,17.80
2023-03-02T06:53:22.768Z,17.67
2023-03-02T06:55:54.436Z,17.45
2023-03-02T06:58:29.127Z,17.73
2023-03-02T07:01:02.834Z,15.18
2023-03-02T07:03:37.250Z,15.63
2023-03-02T07:06:12.178Z,16.30
2023-03-02T07:08:45.845Z,15.63
2023-03-02T07:11:20.517Z,17.40
2023-03-02T07:13:54.198Z,16.60
2023-03-02T07:16:28.890Z,16.30
2023-03-02T07:19:04.527Z,15.95
2023-03-02T07:21:37.545Z,16.45
2023-03-02T07:24:11.039Z,16.98
2023-03-02T07:26:41.324Z,18.80
2023-03-02T07:29:17.218Z,17.42
2023-03-02T07:31:50.915Z,17.27
2023-03-02T07:34:19.393Z,16.25
2023-03-02T07:36:50.829Z,19.10
2023-03-02T07:41:53.526Z,16.67
2023-03-02T07:44:28.239Z,16.45
2023-03-02T07:47:03.150Z,15.85
2023-03-02T07:49:36.587Z,15.95
2023-03-02T07:52:08.253Z,14.10
2023-03-02T07:54:40.931Z,17.42
2023-03-02T07:57:15.613Z,17.17
2023-03-02T07:59:49.284Z,19.45
2023-03-02T08:02:25.032Z,17.42
2023-03-02T08:04:59.769Z,16.15
2023-03-02T08:07:34.345Z,17.20
2023-03-02T08:10:07.021Z,15.90
2023-03-02T08:12:40.713Z,16.20
2023-03-02T08:15:14.408Z,15.45
2023-03-02T08:17:49.087Z,17.50
2023-03-02T08:20:21.763Z,16.38
2023-03-02T08:22:52.441Z,15.88
2023-03-02T08:25:28.115Z,15.85
2023-03-02T08:28:02.792Z,15.35
2023-03-02T08:30:37.490Z,15.50
2023-03-02T08:33:11.135Z,15.43
2023-03-02T08:35:43.880Z,15.30
2023-03-02T08:38:17.504Z,14.45
2023-03-02T08:40:52.169Z,14.25
2023-03-02T08:43:25.848Z,13.80
2023-03-02T08:46:00.634Z,14.43
2023-03-02T08:48:35.176Z,14.50
2023-03-02T08:51:12.094Z,14.18
2023-03-02T08:53:46.632Z,12.80
2023-03-02T08:56:24.354Z,14.43
2023-03-02T08:58:53.534Z,14.20
2023-03-02T09:01:27.523Z,13.00
2023-03-02T09:04:02.438Z,12.68
2023-03-02T09:06:35.088Z,12.45
2023-03-02T09:09:08.473Z,12.65
2023-03-02T09:11:41.446Z,13.20
2023-03-02T09:14:11.287Z,12.95
2023-03-02T09:16:42.847Z,12.88
2023-03-02T09:19:16.456Z,13.63
2023-03-02T09:21:50.167Z,12.85
2023-03-02T09:24:21.865Z,12.52
2023-03-02T09:26:55.566Z,13.05
2023-03-02T09:29:30.241Z,11.50
2023-03-02T09:32:01.020Z,12.32
2023-03-02T09:34:35.601Z,12.70
2023-03-02T09:37:05.124Z,13.45
2023-03-02T09:39:36.973Z,13.00
2023-03-02T09:42:19.692Z,11.35
2023-03-02T09:45:00.397Z,11.38
2023-03-02T09:47:40.129Z,12.25
2023-03-02T09:50:28.894Z,11.88
2023-03-02T09:53:15.662Z,11.55
2023-03-02T09:56:00.482Z,11.63
2023-03-02T09:58:36.107Z,11.65
2023-03-02T10:01:14.342Z,11.02
2023-03-02T10:04:11.742Z,11.82
2023-03-02T10:06:46.321Z,11.52
2023-03-02T10:09:20.015Z,11.48
2023-03-02T10:12:00.720Z,11.05
2023-03-02T10:14:39.508Z,10.20
2023-03-02T10:17:30.225Z,10.55
2023-03-02T10:20:07.921Z,11.38
2023-03-02T10:22:46.530Z,10.07
2023-03-02T10:25:35.283Z,10.23
2023-03-02T10:28:16.115Z,10.32
2023-03-02T10:30:50.852Z,10.40
2023-03-02T10:33:26.507Z,10.10
2023-03-02T10:35:56.300Z,9.57
2023-03-02T10:38:30.882Z,9.38
2023-03-02T10:41:08.604Z,10.10
2023-03-02T10:43:43.320Z,9.25
2023-03-02T10:46:17.052Z,8.93
2023-03-02T10:49:05.780Z,8.48
2023-03-02T10:51:40.477Z,9.43
2023-03-02T10:54:21.186Z,9.05
2023-03-02T10:56:56.857Z,8.65
2023-03-02T10:59:46.978Z,9.52
2023-03-02T11:02:32.333Z,9.48
2023-03-02T11:05:25.105Z,8.00
2023-03-02T11:07:59.809Z,8.73
2023-03-02T11:10:44.557Z,8.98
2023-03-02T11:13:28.258Z,8.00
2023-03-02T11:16:03.445Z,8.55
2023-03-02T11:18:41.624Z,8.27
2023-03-02T11:21:44.438Z,8.65
2023-03-02T11:24:18.137Z,8.32
2023-03-02T11:26:52.814Z,8.27
2023-03-02T11:29:29.607Z,7.18
2023-03-02T11:32:06.260Z,6.68
2023-03-02T11:34:56.015Z,7.30
2023-03-02T11:37:32.612Z,7.38
2023-03-02T11:40:22.450Z,7.32
2023-03-02T11:42:57.006Z,7.75
2023-03-02T11:45:31.657Z,7.82
2023-03-02T11:48:18.405Z,6.95
2023-03-02T11:51:03.550Z,7.20
2023-03-02T11:53:42.840Z,7.75
2023-03-02T11:56:13.485Z,7.90
2023-03-02T11:58:48.177Z,6.78
2023-03-02T12:01:28.912Z,6.72
2023-03-02T12:04:12.600Z,6.20
2023-03-02T12:06:50.298Z,6.10
2023-03-02T12:09:26.134Z,7.20
2023-03-02T12:12:06.726Z,6.35
2023-03-02T12:14:45.436Z,5.93
2023-03-02T12:17:28.182Z,6.40
2023-03-02T12:20:14.930Z,6.38
2023-03-02T12:22:48.613Z,6.88
2023-03-02T12:25:27.303Z,6.60
2023-03-02T12:28:01.992Z,7.00
2023-03-02T12:30:36.669Z,6.15
2023-03-02T12:33:10.352Z,6.00
2023-03-02T12:35:47.712Z,5.90
2023-03-02T12:38:22.764Z,5.40
2023-03-02T12:41:00.413Z,5.82
2023-03-02T12:43:41.136Z,5.38
2023-03-02T12:46:32.175Z,5.30
2023-03-02T12:49:07.538Z,5.65
2023-03-02T12:51:51.570Z,5.88
2023-03-02T12:54:29.005Z,6.43
2023-03-02T12:57:14.774Z,6.13
2023-03-02T12:59:48.454Z,6.90
2023-03-02T13:02:26.182Z,6.68
2023-03-02T13:05:08.821Z,6.63
2023-03-02T13:07:49.552Z,5.97
2023-03-02T13:10:30.324Z,5.88
2023-03-02T13:13:04.958Z,5.25
2023-03-02T13:15:39.632Z,4.95
2023-03-02T13:18:17.338Z,5.40
2023-03-02T13:20:47.997Z,5.57
2023-03-02T13:23:21.684Z,5.28
2023-03-02T13:25:57.343Z,5.72
2023-03-02T13:28:36.049Z,5.53
2023-03-02T13:31:23.903Z,5.57
2023-03-02T13:33:58.463Z,4.53
2023-03-02T13:36:37.174Z,5.03
2023-03-02T13:39:10.830Z,5.78
2023-03-02T13:41:45.508Z,4.78
2023-03-02T13:44:23.877Z,5.10
2023-03-02T13:46:57.874Z,5.25
2023-03-02T13:49:37.680Z,5.63
2023-03-02T13:52:11.280Z,4.80
2023-03-02T13:54:48.018Z,5.63
2023-03-02T13:57:22.682Z,6.38
2023-03-02T13:59:56.333Z,5.78
2023-03-02T14:02:31.012Z,5.68
2023-03-02T14:05:01.395Z,5.60
2023-03-02T14:07:31.316Z,6.22
2023-03-02T14:10:02.401Z,5.53
2023-03-02T14:12:36.678Z,5.20
2023-03-02T14:15:11.355Z,4.68
2023-03-02T14:17:45.806Z,5.15
2023-03-02T14:20:18.695Z,5.10
2023-03-02T14:22:51.365Z,8.10
2023-03-02T14:25:24.024Z,7.90
2023-03-02T14:27:58.702Z,6.15
2023-03-02T14:30:32.378Z,8.48
2023-03-02T14:33:06.068Z,8.55
2023-03-02T14:35:38.196Z,8.43
2023-03-02T14:38:05.477Z,8.40
2023-03-02T14:40:39.061Z,8.52
2023-03-02T14:43:12.854Z,7.97
2023-03-02T14:45:47.390Z,5.15
2023-03-02T14:48:21.467Z,4.85
2023-03-02T14:50:54.766Z,4.80
2023-03-02T14:53:30.442Z,4.93
2023-03-02T14:56:03.207Z,5.70
2023-03-02T14:58:38.791Z,7.80
2023-03-02T15:01:12.484Z,8.32
2023-03-02T15:03:46.278Z,9.10
2023-03-02T15:06:29.904Z,7.88
2023-03-02T15:09:00.577Z,7.38
2023-03-02T15:11:35.628Z,8.63
2023-03-02T15:14:07.912Z,8.07
2023-03-02T15:16:39.999Z,8.63
2023-03-02T15:19:12.326Z,8.68
2023-03-02T15:21:45.823Z,7.47
2023-03-02T15:24:16.531Z,7.55
2023-03-02T15:26:46.062Z,8.40
2023-03-02T15:29:17.681Z,7.85
2023-03-02T15:31:50.756Z,7.78
2023-03-02T15:34:25.358Z,7.78
2023-03-02T15:37:00.026Z,8.00
2023-03-02T15:39:33.707Z,7.95
2023-03-02T15:42:06.664Z,8.00
2023-03-02T15:44:40.053Z,8.73
2023-03-02T15:47:14.748Z,8.88
2023-03-02T15:49:52.656Z,9.35
2023-03-02T15:52:25.780Z,8.95
2023-03-02T15:55:06.844Z,8.77
2023-03-02T15:57:43.497Z,9.98
2023-03-02T16:00:18.165Z,10.52
2023-03-02T16:02:53.899Z,10.07
2023-03-02T16:05:28.465Z,9.65
2023-03-02T16:08:03.144Z,9.35
2023-03-02T16:10:37.445Z,9.05
2023-03-02T16:13:11.380Z,8.80
2023-03-02T16:15:48.025Z,8.25
2023-03-02T16:18:21.662Z,9.07
2023-03-02T16:20:56.309Z,8.32
2023-03-02T16:23:29.945Z,7.90
2023-03-02T16:26:13.624Z,7.57
2023-03-02T16:28:47.269Z,7.53
2023-03-02T16:31:23.951Z,8.18
2023-03-02T16:33:57.563Z,8.40
2023-03-02T16:36:32.200Z,9.00
2023-03-02T16:39:05.844Z,9.05
2023-03-02T16:41:43.510Z,9.13
2023-03-02T16:44:18.145Z,9.85
2023-03-02T16:46:52.780Z,9.95
2023-03-02T16:49:27.418Z,10.40
2023-03-02T16:52:03.083Z,10.23
2023-03-02T16:54:36.703Z,10.00
2023-03-02T16:57:09.334Z,10.05
2023-03-02T16:59:42.971Z,10.32
2023-03-02T17:02:17.601Z,9.23
2023-03-02T17:04:52.247Z,10.80
2023-03-02T17:07:25.883Z,11.13
2023-03-02T17:10:00.532Z,12.48
2023-03-02T17:12:34.171Z,11.10
2023-03-02T17:15:07.806Z,11.55
2023-03-02T17:17:42.469Z,11.48
2023-03-02T17:20:16.166Z,12.23
2023-03-02T17:22:52.870Z,11.55
2023-03-02T17:28:54.416Z,11.88
2023-03-02T17:31:28.106Z,12.00
2023-03-02T17:34:02.771Z,11.32
2023-03-02T17:36:38.464Z,11.60
2023-03-02T17:39:10.123Z,11.73
2023-03-02T17:41:43.785Z,12.15
2023-03-02T17:44:17.468Z,12.13
2023-03-02T17:46:52.164Z,11.20
2023-03-02T17:49:25.829Z,11.20
2023-03-02T17:52:00.509Z,12.70
2023-03-02T17:54:35.177Z,11.55
2023-03-02T17:57:07.858Z,11.82
2023-03-02T17:59:42.530Z,11.38
2023-03-02T18:02:16.224Z,10.88
2023-03-02T18:04:50.907Z,10.73
2023-03-02T18:07:27.611Z,11.55
2023-03-02T18:10:00.307Z,11.25
2023-03-02T18:12:34.993Z,11.10
2023-03-02T18:15:08.645Z,11.15
2023-03-02T18:17:42.341Z,11.68
2023-03-02T18:20:16.021Z,10.88
2023-03-02T18:22:48.629Z,11.10
2023-03-02T18:25:21.360Z,10.65
2023-03-02T18:27:56.073Z,10.77
2023-03-02T18:30:28.257Z,10.32
2023-03-02T18:33:02.091Z,10.10
2023-03-02T18:35:37.086Z,10.60
2023-03-02T18:38:07.775Z,10.30
2023-03-02T18:40:42.465Z,10.63
2023-03-02T18:43:16.118Z,10.32
2023-03-02T18:45:48.474Z,12.98
2023-03-02T18:48:18.596Z,11.50
2023-03-02T18:50:50.257Z,12.43
2023-03-02T18:53:23.759Z,13.85
2023-03-02T18:55:56.737Z,12.75
2023-03-02T18:58:32.148Z,11.38
2023-03-02T19:01:05.884Z,10.75
2023-03-02T19:03:41.487Z,10.27
2023-03-02T19:06:15.171Z,9.65
2023-03-02T19:08:50.862Z,9.48
2023-03-02T19:11:24.537Z,9.90
2023-03-02T19:13:55.201Z,9.95
2023-03-02T19:16:29.964Z,8.98
2023-03-02T19:19:03.558Z,8.68
2023-03-02T19:21:36.244Z,9.00
2023-03-02T19:24:07.628Z,8.25
2023-03-02T19:29:13.282Z,8.05
2023-03-02T19:31:43.967Z,8.98
2023-03-02T19:34:18.706Z,8.73
2023-03-02T19:36:53.286Z,8.82
2023-03-02T19:39:28.961Z,8.13
2023-03-02T19:42:01.609Z,8.85
2023-03-02T19:44:34.292Z,9.07
2023-03-02T19:47:08.982Z,8.45
2023-03-02T19:49:42.668Z,8.80
2023-03-02T19:52:10.885Z,8.40
2023-03-02T19:54:41.185Z,8.50
2023-03-02T19:57:13.650Z,8.68
2023-03-02T19:59:45.328Z,8.50
2023-03-02T20:02:18.047Z,9.27
2023-03-02T20:04:49.683Z,8.82
2023-03-02T20:07:22.419Z,9.30
2023-03-02T20:09:54.009Z,9.68
2023-03-02T20:12:26.766Z,10.18
2023-03-02T20:15:00.367Z,9.50
2023-03-02T20:17:35.084Z,10.55
2023-03-02T20:20:09.712Z,9.88
2023-03-02T20:22:44.408Z,9.68
2023-03-02T20:25:18.007Z,10.50
2023-03-02T20:27:53.800Z,10.85
2023-03-02T20:30:31.315Z,9.55
2023-03-02T20:33:03.418Z,11.18
2023-03-02T20:35:37.561Z,11.38
2023-03-02T20:38:11.551Z,11.60
2023-03-02T20:40:46.170Z,10.38
2023-03-02T20:43:18.857Z,12.80
2023-03-02T20:45:53.631Z,11.25
2023-03-02T20:48:26.195Z,11.10
2023-03-02T20:51:00.893Z,11.43
2023-03-02T20:53:34.579Z,11.15
2023-03-02T20:56:08.273Z,12.23
2023-03-02T20:58:45.944Z,12.07
2023-03-02T21:01:17.321Z,12.05
2023-03-02T21:03:52.304Z,12.82
2023-03-02T21:06:26.003Z,12.80
2023-03-02T21:09:00.637Z,14.25
2023-03-02T21:11:34.299Z,13.35
2023-03-02T21:14:06.980Z,13.85
2023-03-02T21:16:43.702Z,13.10
2023-03-02T21:19:23.318Z,13.43
2023-03-02T21:21:56.015Z,12.82
2023-03-02T21:24:28.721Z,13.25
2023-03-02T21:27:05.424Z,14.20
2023-03-02T21:29:40.140Z,14.57
2023-03-02T21:32:14.854Z,14.35
2023-03-02T21:34:52.489Z,14.75
2023-03-02T21:37:26.197Z,14.30
2023-03-02T21:39:57.503Z,13.73
2023-03-02T21:42:31.484Z,14.85
2023-03-02T21:45:08.163Z,14.95
2023-03-02T21:47:42.870Z,14.82
2023-03-02T21:50:19.527Z,14.80
2023-03-02T21:52:48.164Z,15.45
2023-03-02T21:55:22.828Z,15.73
2023-03-02T21:57:56.471Z,14.50
2023-03-02T22:00:37.181Z,15.15
2023-03-02T22:03:11.873Z,15.13
2023-03-02T22:05:45.538Z,16.63
2023-03-02T22:08:25.268Z,17.10
2023-03-02T22:10:57.389Z,16.10
2023-03-02T22:13:32.602Z,17.25
2023-03-02T22:16:12.749Z,16.13
2023-03-02T22:18:47.002Z,17.08
2023-03-02T22:21:34.857Z,16.52
2023-03-02T22:24:18.129Z,18.33
2023-03-02T22:26:52.814Z,17.70
2023-03-02T22:29:27.841Z,17.90
2023-03-02T22:32:03.486Z,16.65
2023-03-02T22:34:40.113Z,14.63
2023-03-02T22:37:19.894Z,15.80
2023-03-02T22:39:53.566Z,14.75
2023-03-02T22:42:32.276Z,17.27
2023-03-02T22:45:05.958Z,17.52
2023-03-02T22:47:40.650Z,16.67
2023-03-02T22:50:20.343Z,17.10
2023-03-02T22:52:55.019Z,16.15
2023-03-02T22:55:44.764Z,16.75
2023-03-02T22:58:25.477Z,16.30
2023-03-02T23:01:00.253Z,16.58
2023-03-02T23:03:42.874Z,17.25
2023-03-02T23:06:29.631Z,15.55
2023-03-02T23:09:03.558Z,15.75
2023-03-02T23:11:39.992Z,15.18
2023-03-02T23:14:29.757Z,15.30
2023-03-02T23:17:08.460Z,14.00
2023-03-02T23:19:43.116Z,15.48
2023-03-02T23:22:16.799Z,14.98
2023-03-02T23:24:51.511Z,14.65
2023-03-02T23:27:25.139Z,14.57
2023-03-02T23:29:59.837Z,15.70
2023-03-02T23:32:31.530Z,14.00
2023-03-02T23:35:06.159Z,14.98
2023-03-02T23:37:39.841Z,12.88
2023-03-02T23:40:14.527Z,13.93
2023-03-02T23:42:48.227Z,13.43
2023-03-02T23:45:22.897Z,14.18
2023-03-02T23:47:56.569Z,14.32
2023-03-02T23:50:31.260Z,13.45
2023-03-02T23:53:04.938Z,13.65
2023-03-02T23:55:39.714Z,13.95
2023-03-02T23:58:13.313Z,13.35
